sensor_id;sensor_type;location;lat;lon;timestamp;P1;durP1;ratioP1;P2;durP2;ratioP2
12367;SDS011;6248;49.812;6.620;2023-12-20T00:00:52;2.50;;;2.30;;
12367;SDS011;6248;49.812;6.620;2023-12-20T00:03:20;2.47;;;2.27;;
12367;SDS011;6248;49.812;6.620;2023-12-20T00:05:47;2.13;;;1.93;;
12367;SDS011;6248;49.812;6.620;2023-12-20T00:08:16;2.60;;;2.40;;
12367;SDS011;6248;49.812;6.620;2023-12-20T00:10:43;2.87;;;2.40;;
12367;SDS011;6248;49.812;6.620;2023-12-20T00:13:10;2.40;;;2.30;;
12367;SDS011;6248;49.812;6.620;2023-12-20T00:15:38;2.50;;;2.30;;
12367;SDS011;6248;49.812;6.620;2023-12-20T00:18:05;2.30;;;2.10;;
12367;SDS011;6248;49.812;6.620;2023-12-20T00:20:32;2.13;;;2.03;;
12367;SDS011;6248;49.812;6.620;2023-12-20T00:22:59;2.77;;;2.57;;
12367;SDS011;6248;49.812;6.620;2023-12-20T00:25:28;3.40;;;2.80;;
12367;SDS011;6248;49.812;6.620;2023-12-20T00:27:56;2.53;;;2.30;;
12367;SDS011;6248;49.812;6.620;2023-12-20T00:30:23;3.03;;;2.70;;
12367;SDS011;6248;49.812;6.620;2023-12-20T00:32:50;2.60;;;2.40;;
12367;SDS011;6248;49.812;6.620;2023-12-20T00:35:18;2.57;;;2.37;;
12367;SDS011;6248;49.812;6.620;2023-12-20T00:37:45;2.50;;;2.30;;
12367;SDS011;6248;49.812;6.620;2023-12-20T00:40:12;2.13;;;2.03;;
12367;SDS011;6248;49.812;6.620;2023-12-20T00:42:41;2.63;;;2.43;;
12367;SDS011;6248;49.812;6.620;2023-12-20T00:45:09;5.33;;;2.70;;
12367;SDS011;6248;49.812;6.620;2023-12-20T00:47:36;2.80;;;2.60;;
12367;SDS011;6248;49.812;6.620;2023-12-20T00:50:04;3.10;;;2.57;;
12367;SDS011;6248;49.812;6.620;2023-12-20T00:52:31;4.90;;;2.60;;
12367;SDS011;6248;49.812;6.620;2023-12-20T00:54:58;2.70;;;2.50;;
12367;SDS011;6248;49.812;6.620;2023-12-20T00:57:25;3.13;;;2.70;;
12367;SDS011;6248;49.812;6.620;2023-12-20T00:59:54;2.70;;;2.50;;
12367;SDS011;6248;49.812;6.620;2023-12-20T01:02:21;2.70;;;2.50;;
12367;SDS011;6248;49.812;6.620;2023-12-20T01:04:48;2.40;;;2.30;;
12367;SDS011;6248;49.812;6.620;2023-12-20T01:07:16;2.63;;;2.40;;
12367;SDS011;6248;49.812;6.620;2023-12-20T01:09:43;2.43;;;2.23;;
12367;SDS011;6248;49.812;6.620;2023-12-20T01:12:11;2.27;;;2.17;;
12367;SDS011;6248;49.812;6.620;2023-12-20T01:14:38;2.23;;;2.07;;
12367;SDS011;6248;49.812;6.620;2023-12-20T01:17:07;2.53;;;2.33;;
12367;SDS011;6248;49.812;6.620;2023-12-20T01:19:34;2.27;;;2.10;;
12367;SDS011;6248;49.812;6.620;2023-12-20T01:22:01;2.60;;;2.40;;
12367;SDS011;6248;49.812;6.620;2023-12-20T01:24:29;2.70;;;2.50;;
12367;SDS011;6248;49.812;6.620;2023-12-20T01:26:56;2.40;;;2.20;;
12367;SDS011;6248;49.812;6.620;2023-12-20T01:29:23;2.07;;;1.97;;
12367;SDS011;6248;49.812;6.620;2023-12-20T01:31:50;2.10;;;2.00;;
12367;SDS011;6248;49.812;6.620;2023-12-20T01:34:19;2.47;;;2.27;;
12367;SDS011;6248;49.812;6.620;2023-12-20T01:36:46;2.50;;;2.30;;
12367;SDS011;6248;49.812;6.620;2023-12-20T01:39:13;2.43;;;2.27;;
12367;SDS011;6248;49.812;6.620;2023-12-20T01:41:40;2.40;;;2.20;;
12367;SDS011;6248;49.812;6.620;2023-12-20T01:44:08;2.40;;;2.20;;
12367;SDS011;6248;49.812;6.620;2023-12-20T01:46:35;2.83;;;2.63;;
12367;SDS011;6248;49.812;6.620;2023-12-20T01:49:02;2.00;;;1.90;;
12367;SDS011;6248;49.812;6.620;2023-12-20T01:51:31;2.60;;;2.40;;
12367;SDS011;6248;49.812;6.620;2023-12-20T01:53:59;2.50;;;2.30;;
12367;SDS011;6248;49.812;6.620;2023-12-20T01:56:26;2.40;;;2.20;;
12367;SDS011;6248;49.812;6.620;2023-12-20T01:58:54;2.33;;;2.23;;
12367;SDS011;6248;49.812;6.620;2023-12-20T02:01:22;2.57;;;2.37;;
12367;SDS011;6248;49.812;6.620;2023-12-20T02:03:50;2.70;;;2.50;;
12367;SDS011;6248;49.812;6.620;2023-12-20T02:06:18;2.90;;;2.70;;
12367;SDS011;6248;49.812;6.620;2023-12-20T02:08:47;2.60;;;2.50;;
12367;SDS011;6248;49.812;6.620;2023-12-20T02:11:14;3.00;;;2.73;;
12367;SDS011;6248;49.812;6.620;2023-12-20T02:13:41;2.60;;;2.40;;
12367;SDS011;6248;49.812;6.620;2023-12-20T02:16:09;3.00;;;2.70;;
12367;SDS011;6248;49.812;6.620;2023-12-20T02:18:37;2.87;;;2.67;;
12367;SDS011;6248;49.812;6.620;2023-12-20T02:21:04;3.30;;;3.00;;
12367;SDS011;6248;49.812;6.620;2023-12-20T02:23:33;2.80;;;2.60;;
12367;SDS011;6248;49.812;6.620;2023-12-20T02:26:00;2.80;;;2.60;;
12367;SDS011;6248;49.812;6.620;2023-12-20T02:28:27;2.50;;;2.30;;
12367;SDS011;6248;49.812;6.620;2023-12-20T02:30:54;2.77;;;2.57;;
12367;SDS011;6248;49.812;6.620;2023-12-20T02:33:22;2.40;;;2.20;;
12367;SDS011;6248;49.812;6.620;2023-12-20T02:35:49;2.57;;;2.37;;
12367;SDS011;6248;49.812;6.620;2023-12-20T02:38:17;2.77;;;2.57;;
12367;SDS011;6248;49.812;6.620;2023-12-20T02:40:46;2.63;;;2.43;;
12367;SDS011;6248;49.812;6.620;2023-12-20T02:43:13;3.10;;;2.90;;
12367;SDS011;6248;49.812;6.620;2023-12-20T02:45:40;2.90;;;2.70;;
12367;SDS011;6248;49.812;6.620;2023-12-20T02:48:08;2.60;;;2.40;;
12367;SDS011;6248;49.812;6.620;2023-12-20T02:50:35;2.50;;;2.30;;
12367;SDS011;6248;49.812;6.620;2023-12-20T02:53:02;2.70;;;2.50;;
12367;SDS011;6248;49.812;6.620;2023-12-20T02:55:29;2.27;;;2.17;;
12367;SDS011;6248;49.812;6.620;2023-12-20T02:57:58;2.30;;;2.20;;
12367;SDS011;6248;49.812;6.620;2023-12-20T03:00:25;2.73;;;2.53;;
12367;SDS011;6248;49.812;6.620;2023-12-20T03:02:52;2.63;;;2.43;;
12367;SDS011;6248;49.812;6.620;2023-12-20T03:05:19;3.20;;;3.00;;
12367;SDS011;6248;49.812;6.620;2023-12-20T03:07:47;2.77;;;2.57;;
12367;SDS011;6248;49.812;6.620;2023-12-20T03:10:14;2.60;;;2.40;;
12367;SDS011;6248;49.812;6.620;2023-12-20T03:12:41;2.50;;;2.30;;
12367;SDS011;6248;49.812;6.620;2023-12-20T03:15:10;2.87;;;2.60;;
12367;SDS011;6248;49.812;6.620;2023-12-20T03:17:37;3.00;;;2.70;;
12367;SDS011;6248;49.812;6.620;2023-12-20T03:20:05;3.10;;;2.80;;
12367;SDS011;6248;49.812;6.620;2023-12-20T03:22:32;3.30;;;2.70;;
12367;SDS011;6248;49.812;6.620;2023-12-20T03:25:00;3.07;;;2.83;;
12367;SDS011;6248;49.812;6.620;2023-12-20T03:27:28;3.17;;;2.97;;
12367;SDS011;6248;49.812;6.620;2023-12-20T03:29:55;4.30;;;2.70;;
12367;SDS011;6248;49.812;6.620;2023-12-20T03:32:23;3.50;;;2.60;;
12367;SDS011;6248;49.812;6.620;2023-12-20T03:34:51;2.87;;;2.67;;
12367;SDS011;6248;49.812;6.620;2023-12-20T03:37:18;3.57;;;2.70;;
12367;SDS011;6248;49.812;6.620;2023-12-20T03:39:45;3.23;;;2.50;;
12367;SDS011;6248;49.812;6.620;2023-12-20T03:42:12;2.43;;;2.23;;
12367;SDS011;6248;49.812;6.620;2023-12-20T03:44:40;3.17;;;2.40;;
12367;SDS011;6248;49.812;6.620;2023-12-20T03:47:07;3.00;;;2.30;;
12367;SDS011;6248;49.812;6.620;2023-12-20T03:49:36;3.07;;;2.03;;
12367;SDS011;6248;49.812;6.620;2023-12-20T03:52:04;2.30;;;1.90;;
12367;SDS011;6248;49.812;6.620;2023-12-20T03:54:31;3.70;;;2.30;;
12367;SDS011;6248;49.812;6.620;2023-12-20T03:56:58;4.93;;;2.03;;
12367;SDS011;6248;49.812;6.620;2023-12-20T03:59:25;3.97;;;2.00;;
12367;SDS011;6248;49.812;6.620;2023-12-20T04:01:52;4.27;;;2.07;;
12367;SDS011;6248;49.812;6.620;2023-12-20T04:04:19;3.60;;;1.90;;
12367;SDS011;6248;49.812;6.620;2023-12-20T04:06:48;3.43;;;2.20;;
12367;SDS011;6248;49.812;6.620;2023-12-20T04:09:15;3.70;;;2.20;;
12367;SDS011;6248;49.812;6.620;2023-12-20T04:11:42;3.07;;;2.33;;
12367;SDS011;6248;49.812;6.620;2023-12-20T04:14:09;6.07;;;2.77;;
12367;SDS011;6248;49.812;6.620;2023-12-20T04:16:37;5.87;;;2.53;;
12367;SDS011;6248;49.812;6.620;2023-12-20T04:19:05;5.27;;;3.00;;
12367;SDS011;6248;49.812;6.620;2023-12-20T04:21:32;4.60;;;2.73;;
12367;SDS011;6248;49.812;6.620;2023-12-20T04:24:00;5.63;;;2.73;;
12367;SDS011;6248;49.812;6.620;2023-12-20T04:26:27;4.90;;;2.53;;
12367;SDS011;6248;49.812;6.620;2023-12-20T04:28:55;4.80;;;2.80;;
12367;SDS011;6248;49.812;6.620;2023-12-20T04:31:22;5.90;;;2.20;;
12367;SDS011;6248;49.812;6.620;2023-12-20T04:33:49;5.27;;;2.40;;
12367;SDS011;6248;49.812;6.620;2023-12-20T04:36:17;5.80;;;2.20;;
12367;SDS011;6248;49.812;6.620;2023-12-20T04:38:44;5.43;;;2.20;;
12367;SDS011;6248;49.812;6.620;2023-12-20T04:41:13;4.83;;;2.30;;
12367;SDS011;6248;49.812;6.620;2023-12-20T04:43:40;3.97;;;1.97;;
12367;SDS011;6248;49.812;6.620;2023-12-20T04:46:08;4.23;;;2.23;;
12367;SDS011;6248;49.812;6.620;2023-12-20T04:48:35;5.60;;;2.37;;
12367;SDS011;6248;49.812;6.620;2023-12-20T04:51:02;6.23;;;2.33;;
12367;SDS011;6248;49.812;6.620;2023-12-20T04:53:31;3.70;;;2.07;;
12367;SDS011;6248;49.812;6.620;2023-12-20T04:55:58;4.40;;;1.70;;
12367;SDS011;6248;49.812;6.620;2023-12-20T04:58:26;4.23;;;1.90;;
12367;SDS011;6248;49.812;6.620;2023-12-20T05:00:54;6.37;;;1.93;;
12367;SDS011;6248;49.812;6.620;2023-12-20T05:03:21;4.67;;;1.93;;
12367;SDS011;6248;49.812;6.620;2023-12-20T05:05:48;7.67;;;2.03;;
12367;SDS011;6248;49.812;6.620;2023-12-20T05:08:16;5.43;;;2.23;;
12367;SDS011;6248;49.812;6.620;2023-12-20T05:10:43;4.20;;;1.83;;
12367;SDS011;6248;49.812;6.620;2023-12-20T05:13:12;6.53;;;2.10;;
12367;SDS011;6248;49.812;6.620;2023-12-20T05:15:42;5.07;;;1.90;;
12367;SDS011;6248;49.812;6.620;2023-12-20T05:18:11;5.73;;;1.90;;
12367;SDS011;6248;49.812;6.620;2023-12-20T05:20:39;7.93;;;3.10;;
12367;SDS011;6248;49.812;6.620;2023-12-20T05:23:08;7.13;;;3.00;;
12367;SDS011;6248;49.812;6.620;2023-12-20T05:25:39;5.50;;;2.43;;
12367;SDS011;6248;49.812;6.620;2023-12-20T05:28:08;6.60;;;2.20;;
12367;SDS011;6248;49.812;6.620;2023-12-20T05:30:36;6.40;;;1.87;;
12367;SDS011;6248;49.812;6.620;2023-12-20T05:33:06;6.20;;;2.30;;
12367;SDS011;6248;49.812;6.620;2023-12-20T05:35:34;5.63;;;1.70;;
12367;SDS011;6248;49.812;6.620;2023-12-20T05:38:02;7.33;;;1.90;;
12367;SDS011;6248;49.812;6.620;2023-12-20T05:40:32;8.20;;;2.00;;
12367;SDS011;6248;49.812;6.620;2023-12-20T05:43:00;6.00;;;1.93;;
12367;SDS011;6248;49.812;6.620;2023-12-20T05:45:29;5.37;;;2.27;;
12367;SDS011;6248;49.812;6.620;2023-12-20T05:47:57;4.07;;;2.17;;
12367;SDS011;6248;49.812;6.620;2023-12-20T05:50:27;6.23;;;1.90;;
12367;SDS011;6248;49.812;6.620;2023-12-20T05:56:02;5.90;;;1.73;;
12367;SDS011;6248;49.812;6.620;2023-12-20T05:58:32;6.27;;;2.10;;
12367;SDS011;6248;49.812;6.620;2023-12-20T06:01:00;6.50;;;1.93;;
12367;SDS011;6248;49.812;6.620;2023-12-20T06:03:35;5.80;;;2.23;;
12367;SDS011;6248;49.812;6.620;2023-12-20T06:06:07;5.30;;;2.23;;
12367;SDS011;6248;49.812;6.620;2023-12-20T06:08:36;10.33;;;2.33;;
12367;SDS011;6248;49.812;6.620;2023-12-20T06:11:04;5.47;;;1.73;;
12367;SDS011;6248;49.812;6.620;2023-12-20T06:13:32;7.47;;;2.07;;
12367;SDS011;6248;49.812;6.620;2023-12-20T06:16:01;7.57;;;2.50;;
12367;SDS011;6248;49.812;6.620;2023-12-20T06:18:32;6.47;;;2.20;;
12367;SDS011;6248;49.812;6.620;2023-12-20T06:21:02;6.43;;;2.77;;
12367;SDS011;6248;49.812;6.620;2023-12-20T06:23:33;5.73;;;1.80;;
12367;SDS011;6248;49.812;6.620;2023-12-20T06:26:01;5.43;;;2.00;;
12367;SDS011;6248;49.812;6.620;2023-12-20T06:28:28;6.87;;;2.27;;
12367;SDS011;6248;49.812;6.620;2023-12-20T06:30:55;5.57;;;2.17;;
12367;SDS011;6248;49.812;6.620;2023-12-20T06:33:23;6.07;;;2.30;;
12367;SDS011;6248;49.812;6.620;2023-12-20T06:36:11;3.43;;;1.80;;
12367;SDS011;6248;49.812;6.620;2023-12-20T06:38:39;5.27;;;1.80;;
12367;SDS011;6248;49.812;6.620;2023-12-20T06:41:07;7.10;;;2.93;;
12367;SDS011;6248;49.812;6.620;2023-12-20T06:43:35;6.57;;;2.20;;
12367;SDS011;6248;49.812;6.620;2023-12-20T06:46:02;6.80;;;2.30;;
12367;SDS011;6248;49.812;6.620;2023-12-20T06:48:29;7.87;;;2.57;;
12367;SDS011;6248;49.812;6.620;2023-12-20T06:50:57;5.60;;;2.60;;
12367;SDS011;6248;49.812;6.620;2023-12-20T06:53:26;6.53;;;2.77;;
12367;SDS011;6248;49.812;6.620;2023-12-20T06:55:54;8.00;;;2.80;;
12367;SDS011;6248;49.812;6.620;2023-12-20T06:58:21;6.53;;;2.80;;
12367;SDS011;6248;49.812;6.620;2023-12-20T07:00:50;8.27;;;2.40;;
12367;SDS011;6248;49.812;6.620;2023-12-20T07:03:18;7.03;;;2.73;;
12367;SDS011;6248;49.812;6.620;2023-12-20T07:05:45;6.40;;;2.87;;
12367;SDS011;6248;49.812;6.620;2023-12-20T07:08:12;5.40;;;2.40;;
12367;SDS011;6248;49.812;6.620;2023-12-20T07:10:42;8.33;;;2.53;;
12367;SDS011;6248;49.812;6.620;2023-12-20T07:13:09;4.67;;;2.20;;
12367;SDS011;6248;49.812;6.620;2023-12-20T07:15:37;8.37;;;3.30;;
12367;SDS011;6248;49.812;6.620;2023-12-20T07:18:04;6.90;;;3.10;;
12367;SDS011;6248;49.812;6.620;2023-12-20T07:20:32;8.50;;;2.83;;
12367;SDS011;6248;49.812;6.620;2023-12-20T07:22:59;7.47;;;3.17;;
12367;SDS011;6248;49.812;6.620;2023-12-20T07:25:27;8.60;;;2.40;;
12367;SDS011;6248;49.812;6.620;2023-12-20T07:27:56;9.73;;;2.73;;
12367;SDS011;6248;49.812;6.620;2023-12-20T07:30:24;7.03;;;2.73;;
12367;SDS011;6248;49.812;6.620;2023-12-20T07:32:51;7.80;;;2.43;;
12367;SDS011;6248;49.812;6.620;2023-12-20T07:35:18;6.73;;;2.57;;
12367;SDS011;6248;49.812;6.620;2023-12-20T07:37:46;11.50;;;2.97;;
12367;SDS011;6248;49.812;6.620;2023-12-20T07:40:15;7.40;;;2.73;;
12367;SDS011;6248;49.812;6.620;2023-12-20T07:42:42;8.30;;;2.80;;
12367;SDS011;6248;49.812;6.620;2023-12-20T07:45:11;9.70;;;2.90;;
12367;SDS011;6248;49.812;6.620;2023-12-20T07:47:38;9.43;;;2.80;;
12367;SDS011;6248;49.812;6.620;2023-12-20T07:50:06;8.47;;;3.13;;
12367;SDS011;6248;49.812;6.620;2023-12-20T07:52:33;6.47;;;2.57;;
12367;SDS011;6248;49.812;6.620;2023-12-20T07:55:00;8.50;;;2.83;;
12367;SDS011;6248;49.812;6.620;2023-12-20T07:57:28;10.70;;;3.00;;
12367;SDS011;6248;49.812;6.620;2023-12-20T07:59:55;4.83;;;2.50;;
12367;SDS011;6248;49.812;6.620;2023-12-20T08:02:24;9.53;;;2.77;;
12367;SDS011;6248;49.812;6.620;2023-12-20T08:04:51;9.83;;;2.93;;
12367;SDS011;6248;49.812;6.620;2023-12-20T08:07:18;9.23;;;3.23;;
12367;SDS011;6248;49.812;6.620;2023-12-20T08:09:45;7.17;;;2.73;;
12367;SDS011;6248;49.812;6.620;2023-12-20T08:12:12;10.00;;;3.40;;
12367;SDS011;6248;49.812;6.620;2023-12-20T08:14:40;8.33;;;2.57;;
12367;SDS011;6248;49.812;6.620;2023-12-20T08:17:07;9.77;;;3.27;;
12367;SDS011;6248;49.812;6.620;2023-12-20T08:19:36;9.40;;;2.90;;
12367;SDS011;6248;49.812;6.620;2023-12-20T08:22:03;8.77;;;3.50;;
12367;SDS011;6248;49.812;6.620;2023-12-20T08:24:30;8.80;;;3.13;;
12367;SDS011;6248;49.812;6.620;2023-12-20T08:26:57;11.57;;;3.47;;
12367;SDS011;6248;49.812;6.620;2023-12-20T08:29:24;7.07;;;3.07;;
12367;SDS011;6248;49.812;6.620;2023-12-20T08:31:52;11.93;;;3.73;;
12367;SDS011;6248;49.812;6.620;2023-12-20T08:34:19;10.67;;;3.60;;
12367;SDS011;6248;49.812;6.620;2023-12-20T08:36:48;8.20;;;3.43;;
12367;SDS011;6248;49.812;6.620;2023-12-20T08:39:15;9.60;;;3.40;;
12367;SDS011;6248;49.812;6.620;2023-12-20T08:41:42;10.93;;;3.80;;
12367;SDS011;6248;49.812;6.620;2023-12-20T08:44:09;7.47;;;3.30;;
12367;SDS011;6248;49.812;6.620;2023-12-20T08:46:36;8.80;;;4.10;;
12367;SDS011;6248;49.812;6.620;2023-12-20T08:49:03;9.27;;;4.00;;
12367;SDS011;6248;49.812;6.620;2023-12-20T08:51:31;11.37;;;4.07;;
12367;SDS011;6248;49.812;6.620;2023-12-20T08:54:00;9.13;;;3.90;;
12367;SDS011;6248;49.812;6.620;2023-12-20T08:56:27;8.93;;;3.77;;
12367;SDS011;6248;49.812;6.620;2023-12-20T08:58:54;10.43;;;4.00;;
12367;SDS011;6248;49.812;6.620;2023-12-20T09:01:21;7.73;;;3.87;;
12367;SDS011;6248;49.812;6.620;2023-12-20T09:03:48;10.63;;;3.90;;
12367;SDS011;6248;49.812;6.620;2023-12-20T09:06:19;10.47;;;4.30;;
12367;SDS011;6248;49.812;6.620;2023-12-20T09:08:47;11.63;;;4.50;;
12367;SDS011;6248;49.812;6.620;2023-12-20T09:11:15;13.10;;;4.00;;
12367;SDS011;6248;49.812;6.620;2023-12-20T09:13:42;9.13;;;3.87;;
12367;SDS011;6248;49.812;6.620;2023-12-20T09:16:09;12.03;;;4.20;;
12367;SDS011;6248;49.812;6.620;2023-12-20T09:18:38;9.57;;;4.07;;
12367;SDS011;6248;49.812;6.620;2023-12-20T09:21:05;15.53;;;4.07;;
12367;SDS011;6248;49.812;6.620;2023-12-20T09:23:33;16.83;;;4.53;;
12367;SDS011;6248;49.812;6.620;2023-12-20T09:26:01;10.00;;;3.50;;
12367;SDS011;6248;49.812;6.620;2023-12-20T09:28:32;10.23;;;3.80;;
12367;SDS011;6248;49.812;6.620;2023-12-20T09:31:02;13.43;;;4.30;;
12367;SDS011;6248;49.812;6.620;2023-12-20T09:33:30;10.27;;;4.10;;
12367;SDS011;6248;49.812;6.620;2023-12-20T09:35:58;9.53;;;3.80;;
12367;SDS011;6248;49.812;6.620;2023-12-20T09:38:25;9.77;;;3.80;;
12367;SDS011;6248;49.812;6.620;2023-12-20T09:40:52;9.70;;;3.80;;
12367;SDS011;6248;49.812;6.620;2023-12-20T09:43:21;9.83;;;3.77;;
12367;SDS011;6248;49.812;6.620;2023-12-20T09:45:52;8.70;;;3.23;;
12367;SDS011;6248;49.812;6.620;2023-12-20T09:48:20;7.20;;;3.60;;
12367;SDS011;6248;49.812;6.620;2023-12-20T09:50:47;9.83;;;4.10;;
12367;SDS011;6248;49.812;6.620;2023-12-20T09:53:15;11.37;;;3.93;;
12367;SDS011;6248;49.812;6.620;2023-12-20T09:55:42;12.60;;;4.13;;
12367;SDS011;6248;49.812;6.620;2023-12-20T09:58:09;8.00;;;3.70;;
12367;SDS011;6248;49.812;6.620;2023-12-20T10:00:36;9.80;;;4.10;;
12367;SDS011;6248;49.812;6.620;2023-12-20T10:03:05;10.60;;;3.80;;
12367;SDS011;6248;49.812;6.620;2023-12-20T10:05:33;11.50;;;3.60;;
12367;SDS011;6248;49.812;6.620;2023-12-20T10:08:01;10.80;;;3.93;;
12367;SDS011;6248;49.812;6.620;2023-12-20T10:10:28;14.90;;;7.63;;
12367;SDS011;6248;49.812;6.620;2023-12-20T10:13:02;10.13;;;3.60;;
12367;SDS011;6248;49.812;6.620;2023-12-20T10:15:30;11.47;;;3.63;;
12367;SDS011;6248;49.812;6.620;2023-12-20T10:17:57;8.00;;;3.53;;
12367;SDS011;6248;49.812;6.620;2023-12-20T10:20:25;8.97;;;2.90;;
12367;SDS011;6248;49.812;6.620;2023-12-20T10:22:54;8.83;;;3.27;;
12367;SDS011;6248;49.812;6.620;2023-12-20T10:25:21;9.00;;;3.33;;
12367;SDS011;6248;49.812;6.620;2023-12-20T10:27:49;8.87;;;3.40;;
12367;SDS011;6248;49.812;6.620;2023-12-20T10:30:16;7.20;;;3.10;;
12367;SDS011;6248;49.812;6.620;2023-12-20T10:32:43;6.07;;;2.80;;
12367;SDS011;6248;49.812;6.620;2023-12-20T10:35:10;9.33;;;3.30;;
12367;SDS011;6248;49.812;6.620;2023-12-20T10:37:39;8.73;;;3.10;;
12367;SDS011;6248;49.812;6.620;2023-12-20T10:40:06;6.63;;;2.33;;
12367;SDS011;6248;49.812;6.620;2023-12-20T10:42:34;11.13;;;2.73;;
12367;SDS011;6248;49.812;6.620;2023-12-20T10:45:02;8.47;;;2.70;;
12367;SDS011;6248;49.812;6.620;2023-12-20T10:47:30;11.33;;;2.90;;
12367;SDS011;6248;49.812;6.620;2023-12-20T10:49:58;11.43;;;3.77;;
12367;SDS011;6248;49.812;6.620;2023-12-20T10:52:26;10.07;;;3.10;;
12367;SDS011;6248;49.812;6.620;2023-12-20T10:54:56;6.83;;;2.60;;
12367;SDS011;6248;49.812;6.620;2023-12-20T10:57:23;7.90;;;2.20;;
12367;SDS011;6248;49.812;6.620;2023-12-20T10:59:54;7.40;;;2.43;;
12367;SDS011;6248;49.812;6.620;2023-12-20T11:02:23;8.20;;;2.37;;
12367;SDS011;6248;49.812;6.620;2023-12-20T11:04:53;6.73;;;2.27;;
12367;SDS011;6248;49.812;6.620;2023-12-20T11:07:23;9.13;;;2.43;;
12367;SDS011;6248;49.812;6.620;2023-12-20T11:09:56;6.03;;;2.07;;
12367;SDS011;6248;49.812;6.620;2023-12-20T11:12:28;8.83;;;2.57;;
12367;SDS011;6248;49.812;6.620;2023-12-20T11:14:58;7.77;;;2.07;;
12367;SDS011;6248;49.812;6.620;2023-12-20T11:17:29;10.43;;;2.47;;
12367;SDS011;6248;49.812;6.620;2023-12-20T11:20:08;7.43;;;2.30;;
12367;SDS011;6248;49.812;6.620;2023-12-20T11:22:39;6.53;;;2.23;;
12367;SDS011;6248;49.812;6.620;2023-12-20T11:25:09;7.73;;;2.20;;
12367;SDS011;6248;49.812;6.620;2023-12-20T11:27:37;6.20;;;2.00;;
12367;SDS011;6248;49.812;6.620;2023-12-20T11:30:07;8.40;;;2.33;;
12367;SDS011;6248;49.812;6.620;2023-12-20T11:32:35;9.77;;;2.70;;
12367;SDS011;6248;49.812;6.620;2023-12-20T11:35:16;5.60;;;1.90;;
12367;SDS011;6248;49.812;6.620;2023-12-20T11:37:44;6.13;;;2.17;;
12367;SDS011;6248;49.812;6.620;2023-12-20T11:40:14;7.90;;;2.40;;
12367;SDS011;6248;49.812;6.620;2023-12-20T11:42:43;6.63;;;2.40;;
12367;SDS011;6248;49.812;6.620;2023-12-20T11:45:11;6.03;;;2.00;;
12367;SDS011;6248;49.812;6.620;2023-12-20T11:47:40;7.93;;;1.90;;
12367;SDS011;6248;49.812;6.620;2023-12-20T11:50:08;8.07;;;2.10;;
12367;SDS011;6248;49.812;6.620;2023-12-20T11:52:35;10.53;;;2.00;;
12367;SDS011;6248;49.812;6.620;2023-12-20T11:55:02;6.03;;;2.27;;
12367;SDS011;6248;49.812;6.620;2023-12-20T11:57:31;7.63;;;2.20;;
12367;SDS011;6248;49.812;6.620;2023-12-20T11:59:58;6.93;;;2.23;;
12367;SDS011;6248;49.812;6.620;2023-12-20T12:02:25;8.30;;;2.10;;
12367;SDS011;6248;49.812;6.620;2023-12-20T12:04:52;10.67;;;2.70;;
12367;SDS011;6248;49.812;6.620;2023-12-20T12:07:20;6.30;;;2.13;;
12367;SDS011;6248;49.812;6.620;2023-12-20T12:09:47;7.90;;;1.90;;
12367;SDS011;6248;49.812;6.620;2023-12-20T12:12:14;7.77;;;2.27;;
12367;SDS011;6248;49.812;6.620;2023-12-20T12:14:43;9.30;;;2.23;;
12367;SDS011;6248;49.812;6.620;2023-12-20T12:17:11;8.13;;;2.30;;
12367;SDS011;6248;49.812;6.620;2023-12-20T12:19:38;7.93;;;2.03;;
12367;SDS011;6248;49.812;6.620;2023-12-20T12:22:05;7.00;;;2.80;;
12367;SDS011;6248;49.812;6.620;2023-12-20T12:24:35;8.00;;;2.30;;
12367;SDS011;6248;49.812;6.620;2023-12-20T12:27:02;10.73;;;2.80;;
12367;SDS011;6248;49.812;6.620;2023-12-20T12:29:30;7.67;;;2.83;;
12367;SDS011;6248;49.812;6.620;2023-12-20T12:31:58;7.17;;;2.53;;
12367;SDS011;6248;49.812;6.620;2023-12-20T12:34:27;9.90;;;2.97;;
12367;SDS011;6248;49.812;6.620;2023-12-20T12:36:54;7.40;;;2.63;;
12367;SDS011;6248;49.812;6.620;2023-12-20T12:39:21;10.73;;;2.97;;
12367;SDS011;6248;49.812;6.620;2023-12-20T12:41:50;10.73;;;2.67;;
12367;SDS011;6248;49.812;6.620;2023-12-20T12:44:17;7.53;;;2.23;;
12367;SDS011;6248;49.812;6.620;2023-12-20T12:46:44;6.97;;;2.13;;
12367;SDS011;6248;49.812;6.620;2023-12-20T12:49:13;8.17;;;2.17;;
12367;SDS011;6248;49.812;6.620;2023-12-20T12:51:41;7.47;;;2.40;;
12367;SDS011;6248;49.812;6.620;2023-12-20T12:54:08;7.73;;;2.40;;
12367;SDS011;6248;49.812;6.620;2023-12-20T12:56:35;5.60;;;2.10;;
12367;SDS011;6248;49.812;6.620;2023-12-20T12:59:02;9.13;;;2.57;;
12367;SDS011;6248;49.812;6.620;2023-12-20T13:01:30;7.37;;;2.20;;
12367;SDS011;6248;49.812;6.620;2023-12-20T13:03:57;7.73;;;2.27;;
12367;SDS011;6248;49.812;6.620;2023-12-20T13:06:27;7.00;;;2.10;;
12367;SDS011;6248;49.812;6.620;2023-12-20T13:08:55;6.07;;;2.50;;
12367;SDS011;6248;49.812;6.620;2023-12-20T13:11:22;7.30;;;2.43;;
12367;SDS011;6248;49.812;6.620;2023-12-20T13:13:50;5.60;;;2.33;;
12367;SDS011;6248;49.812;6.620;2023-12-20T13:16:17;6.27;;;2.07;;
12367;SDS011;6248;49.812;6.620;2023-12-20T13:18:44;5.37;;;1.80;;
12367;SDS011;6248;49.812;6.620;2023-12-20T13:21:11;5.23;;;1.93;;
12367;SDS011;6248;49.812;6.620;2023-12-20T13:23:39;7.43;;;2.20;;
12367;SDS011;6248;49.812;6.620;2023-12-20T13:26:07;5.97;;;2.13;;
12367;SDS011;6248;49.812;6.620;2023-12-20T13:28:34;6.80;;;2.40;;
12367;SDS011;6248;49.812;6.620;2023-12-20T13:31:01;8.97;;;2.80;;
12367;SDS011;6248;49.812;6.620;2023-12-20T13:33:28;7.30;;;2.10;;
12367;SDS011;6248;49.812;6.620;2023-12-20T13:35:55;7.13;;;2.67;;
12367;SDS011;6248;49.812;6.620;2023-12-20T13:38:23;8.30;;;2.57;;
12367;SDS011;6248;49.812;6.620;2023-12-20T13:40:51;6.40;;;2.07;;
12367;SDS011;6248;49.812;6.620;2023-12-20T13:43:19;5.67;;;1.70;;
12367;SDS011;6248;49.812;6.620;2023-12-20T13:45:46;6.77;;;2.43;;
12367;SDS011;6248;49.812;6.620;2023-12-20T13:48:14;7.07;;;2.23;;
12367;SDS011;6248;49.812;6.620;2023-12-20T13:50:41;5.87;;;2.37;;
12367;SDS011;6248;49.812;6.620;2023-12-20T13:53:08;5.80;;;1.90;;
12367;SDS011;6248;49.812;6.620;2023-12-20T13:55:35;6.60;;;2.13;;
12367;SDS011;6248;49.812;6.620;2023-12-20T13:58:04;6.00;;;2.30;;
12367;SDS011;6248;49.812;6.620;2023-12-20T14:00:31;8.40;;;2.57;;
12367;SDS011;6248;49.812;6.620;2023-12-20T14:02:58;6.87;;;2.23;;
12367;SDS011;6248;49.812;6.620;2023-12-20T14:05:25;4.80;;;2.23;;
12367;SDS011;6248;49.812;6.620;2023-12-20T14:07:53;5.53;;;2.33;;
12367;SDS011;6248;49.812;6.620;2023-12-20T14:10:22;5.60;;;2.20;;
12367;SDS011;6248;49.812;6.620;2023-12-20T14:12:51;9.47;;;2.97;;
12367;SDS011;6248;49.812;6.620;2023-12-20T14:15:19;6.97;;;2.00;;
12367;SDS011;6248;49.812;6.620;2023-12-20T14:17:50;8.60;;;2.73;;
12367;SDS011;6248;49.812;6.620;2023-12-20T14:20:18;7.90;;;2.53;;
12367;SDS011;6248;49.812;6.620;2023-12-20T14:22:45;7.23;;;2.60;;
12367;SDS011;6248;49.812;6.620;2023-12-20T14:25:13;8.00;;;2.57;;
12367;SDS011;6248;49.812;6.620;2023-12-20T14:27:41;5.93;;;2.37;;
12367;SDS011;6248;49.812;6.620;2023-12-20T14:30:09;8.63;;;3.27;;
12367;SDS011;6248;49.812;6.620;2023-12-20T14:32:40;7.33;;;2.30;;
12367;SDS011;6248;49.812;6.620;2023-12-20T14:35:07;7.80;;;2.50;;
12367;SDS011;6248;49.812;6.620;2023-12-20T14:37:34;9.40;;;2.50;;
12367;SDS011;6248;49.812;6.620;2023-12-20T14:40:04;7.60;;;2.40;;
12367;SDS011;6248;49.812;6.620;2023-12-20T14:42:31;7.53;;;2.23;;
12367;SDS011;6248;49.812;6.620;2023-12-20T14:44:58;7.33;;;2.40;;
12367;SDS011;6248;49.812;6.620;2023-12-20T14:47:26;7.97;;;2.40;;
12367;SDS011;6248;49.812;6.620;2023-12-20T14:49:54;6.20;;;2.30;;
12367;SDS011;6248;49.812;6.620;2023-12-20T14:52:21;7.63;;;2.37;;
12367;SDS011;6248;49.812;6.620;2023-12-20T14:54:48;6.87;;;2.27;;
12367;SDS011;6248;49.812;6.620;2023-12-20T14:57:15;7.03;;;2.20;;
12367;SDS011;6248;49.812;6.620;2023-12-20T14:59:43;8.73;;;2.40;;
12367;SDS011;6248;49.812;6.620;2023-12-20T15:02:10;7.60;;;2.60;;
12367;SDS011;6248;49.812;6.620;2023-12-20T15:04:37;8.67;;;2.47;;
12367;SDS011;6248;49.812;6.620;2023-12-20T15:07:06;7.60;;;2.50;;